sensor_id;sensor_type;location;lat;lon;timestamp;pressure;altitude;pressure_sealevel;temperature;humidity
25759;BME280;13604;52.496;13.456;2023-02-14T00:01:43;103399.72;;;4.69;80.84
25759;BME280;13604;52.496;13.456;2023-02-14T00:04:08;103385.78;;;4.60;80.69
25759;BME280;13604;52.496;13.456;2023-02-14T00:06:34;103394.94;;;4.65;80.50
25759;BME280;13604;52.496;13.456;2023-02-14T00:09:07;103381.38;;;4.59;80.16
25759;BME280;13604;52.496;13.456;2023-02-14T00:11:32;103394.59;;;4.62;80.40
25759;BME280;13604;52.496;13.456;2023-02-14T00:13:58;103391.53;;;4.57;80.03
25759;BME280;13604;52.496;13.456;2023-02-14T00:16:42;103384.69;;;4.58;80.18
25759;BME280;13604;52.496;13.456;2023-02-14T00:19:08;103395.19;;;4.59;80.19
25759;BME280;13604;52.496;13.456;2023-02-14T00:21:36;103382.66;;;4.55;80.28
25759;BME280;13604;52.496;13.456;2023-02-14T00:24:07;103389.16;;;4.52;80.68
25759;BME280;13604;52.496;13.456;2023-02-14T00:26:33;103386.75;;;4.53;80.71
25759;BME280;13604;52.496;13.456;2023-02-14T00:28:59;103395.91;;;4.58;80.94
25759;BME280;13604;52.496;13.456;2023-02-14T00:31:24;103389.34;;;4.53;80.75
25759;BME280;13604;52.496;13.456;2023-02-14T00:33:49;103369.09;;;4.49;80.66
25759;BME280;13604;52.496;13.456;2023-02-14T00:36:16;103392.78;;;4.61;80.40
25759;BME280;13604;52.496;13.456;2023-02-14T00:38:42;103381.94;;;4.56;80.48
25759;BME280;13604;52.496;13.456;2023-02-14T00:41:08;103377.06;;;4.43;80.46
25759;BME280;13604;52.496;13.456;2023-02-14T00:43:33;103384.34;;;4.32;80.87
25759;BME280;13604;52.496;13.456;2023-02-14T00:45:58;103374.59;;;4.29;80.99
25759;BME280;13604;52.496;13.456;2023-02-14T00:48:24;103394.59;;;4.39;81.21
25759;BME280;13604;52.496;13.456;2023-02-14T00:50:49;103393.06;;;4.48;81.05
25759;BME280;13604;52.496;13.456;2023-02-14T00:53:14;103380.50;;;4.51;81.40
25759;BME280;13604;52.496;13.456;2023-02-14T00:55:40;103361.56;;;4.43;81.07
25759;BME280;13604;52.496;13.456;2023-02-14T00:58:05;103368.00;;;4.47;81.69
25759;BME280;13604;52.496;13.456;2023-02-14T01:00:30;103380.50;;;4.51;81.51
25759;BME280;13604;52.496;13.456;2023-02-14T01:02:56;103380.50;;;4.51;81.87
25759;BME280;13604;52.496;13.456;2023-02-14T01:05:21;103372.78;;;4.51;81.54
25759;BME280;13604;52.496;13.456;2023-02-14T01:07:46;103373.13;;;4.54;81.60
25759;BME280;13604;52.496;13.456;2023-02-14T01:10:12;103355.69;;;4.45;81.65
25759;BME280;13604;52.496;13.456;2023-02-14T01:12:37;103359.50;;;4.48;81.23
25759;BME280;13604;52.496;13.456;2023-02-14T01:15:03;103370.09;;;4.58;81.31
25759;BME280;13604;52.496;13.456;2023-02-14T01:17:28;103370.09;;;4.58;81.55
25759;BME280;13604;52.496;13.456;2023-02-14T01:19:54;103353.84;;;4.43;81.57
25759;BME280;13604;52.496;13.456;2023-02-14T01:22:19;103354.19;;;4.47;81.42
25759;BME280;13604;52.496;13.456;2023-02-14T01:24:45;103362.66;;;4.46;81.34
25759;BME280;13604;52.496;13.456;2023-02-14T01:27:10;103358.38;;;4.53;81.43
25759;BME280;13604;52.496;13.456;2023-02-14T01:29:35;103361.13;;;4.55;81.30
25759;BME280;13604;52.496;13.456;2023-02-14T01:32:00;103368.84;;;4.55;81.43
25759;BME280;13604;52.496;13.456;2023-02-14T01:34:26;103361.13;;;4.55;81.50
25759;BME280;13604;52.496;13.456;2023-02-14T01:36:51;103345.72;;;4.48;81.40
25759;BME280;13604;52.496;13.456;2023-02-14T01:39:16;103353.78;;;4.51;81.58
25759;BME280;13604;52.496;13.456;2023-02-14T01:41:44;103336.19;;;4.39;81.43
25759;BME280;13604;52.496;13.456;2023-02-14T01:46:37;103324.28;;;4.33;81.25
25759;BME280;13604;52.496;13.456;2023-02-14T01:49:10;103344.59;;;4.46;81.56
25759;BME280;13604;52.496;13.456;2023-02-14T01:51:42;103327.75;;;4.33;81.83
25759;BME280;13604;52.496;13.456;2023-02-14T01:54:09;103343.88;;;4.47;81.62
25759;BME280;13604;52.496;13.456;2023-02-14T01:56:41;103330.69;;;4.36;81.44
25759;BME280;13604;52.496;13.456;2023-02-14T01:59:10;103340.75;;;4.42;81.41
25759;BME280;13604;52.496;13.456;2023-02-14T02:01:37;103322.59;;;4.33;81.49
25759;BME280;13604;52.496;13.456;2023-02-14T02:04:09;103327.25;;;4.29;81.63
25759;BME280;13604;52.496;13.456;2023-02-14T02:06:41;103341.63;;;4.27;81.46
25759;BME280;13604;52.496;13.456;2023-02-14T02:09:17;103348.97;;;4.31;81.64
25759;BME280;13604;52.496;13.456;2023-02-14T02:11:44;103348.22;;;4.32;81.42
25759;BME280;13604;52.496;13.456;2023-02-14T02:14:19;103350.97;;;4.33;81.80
25759;BME280;13604;52.496;13.456;2023-02-14T02:17:07;103345.81;;;4.33;81.90
25759;BME280;13604;52.496;13.456;2023-02-14T02:19:52;103346.00;;;4.35;81.65
25759;BME280;13604;52.496;13.456;2023-02-14T02:25:41;103335.31;;;4.32;81.57
25759;BME280;13604;52.496;13.456;2023-02-14T02:34:02;103335.84;;;4.36;81.07
25759;BME280;13604;52.496;13.456;2023-02-14T02:36:58;103350.34;;;4.43;81.22
25759;BME280;13604;52.496;13.456;2023-02-14T02:39:52;103344.28;;;4.42;81.02
25759;BME280;13604;52.496;13.456;2023-02-14T02:42:26;103343.63;;;4.29;81.57
25759;BME280;13604;52.496;13.456;2023-02-14T02:45:27;103340.50;;;4.32;81.63
25759;BME280;13604;52.496;13.456;2023-02-14T02:48:06;103318.88;;;4.15;81.61
25759;BME280;13604;52.496;13.456;2023-02-14T02:50:40;103350.25;;;4.11;82.22
25759;BME280;13604;52.496;13.456;2023-02-14T02:53:32;103332.56;;;3.84;83.52
25759;BME280;13604;52.496;13.456;2023-02-14T02:56:08;103323.66;;;3.89;82.94
25759;BME280;13604;52.496;13.456;2023-02-14T02:58:57;103344.94;;;4.02;83.06
25759;BME280;13604;52.496;13.456;2023-02-14T03:01:29;103343.22;;;3.87;83.59
25759;BME280;13604;52.496;13.456;2023-02-14T03:04:00;103343.94;;;3.86;83.59
25759;BME280;13604;52.496;13.456;2023-02-14T03:06:46;103343.81;;;3.77;84.09
25759;BME280;13604;52.496;13.456;2023-02-14T03:15:08;103347.13;;;3.76;84.18
25759;BME280;13604;52.496;13.456;2023-02-14T03:17:49;103343.53;;;3.67;84.66
25759;BME280;13604;52.496;13.456;2023-02-14T03:20:22;103344.91;;;3.79;84.45
25759;BME280;13604;52.496;13.456;2023-02-14T03:23:17;103341.34;;;3.93;84.29
25759;BME280;13604;52.496;13.456;2023-02-14T03:31:00;103336.06;;;4.08;83.14
25759;BME280;13604;52.496;13.456;2023-02-14T03:33:57;103303.75;;;3.95;83.16
25759;BME280;13604;52.496;13.456;2023-02-14T03:36:30;103332.41;;;4.05;83.28
25759;BME280;13604;52.496;13.456;2023-02-14T03:39:02;103335.16;;;4.07;83.44
25759;BME280;13604;52.496;13.456;2023-02-14T03:41:36;103337.81;;;3.93;84.07
25759;BME280;13604;52.496;13.456;2023-02-14T03:44:04;103348.03;;;3.84;84.00
25759;BME280;13604;52.496;13.456;2023-02-14T03:49:25;103335.09;;;3.61;84.76
25759;BME280;13604;52.496;13.456;2023-02-14T03:51:55;103331.78;;;3.55;85.16
25759;BME280;13604;52.496;13.456;2023-02-14T03:54:24;103343.72;;;3.61;85.20
25759;BME280;13604;52.496;13.456;2023-02-14T03:57:03;103341.13;;;3.68;85.06
25759;BME280;13604;52.496;13.456;2023-02-14T03:59:31;103280.38;;;3.33;84.95
25759;BME280;13604;52.496;13.456;2023-02-14T04:02:04;103338.50;;;3.76;84.75
25759;BME280;13604;52.496;13.456;2023-02-14T04:04:34;103328.38;;;3.77;84.27
25759;BME280;13604;52.496;13.456;2023-02-14T04:07:12;103337.09;;;3.94;84.40
25759;BME280;13604;52.496;13.456;2023-02-14T04:09:38;103315.81;;;3.80;84.48
25759;BME280;13604;52.496;13.456;2023-02-14T04:12:03;103325.78;;;3.77;84.01
25759;BME280;13604;52.496;13.456;2023-02-14T04:14:29;103295.59;;;3.46;84.25
25759;BME280;13604;52.496;13.456;2023-02-14T04:16:54;103335.63;;;3.65;85.34
25759;BME280;13604;52.496;13.456;2023-02-14T04:19:38;103319.50;;;3.52;85.79
25759;BME280;13604;52.496;13.456;2023-02-14T04:22:04;103341.13;;;3.68;85.58
25759;BME280;13604;52.496;13.456;2023-02-14T04:24:29;103316.56;;;3.49;85.70
25759;BME280;13604;52.496;13.456;2023-02-14T04:26:54;103321.66;;;3.56;85.54
25759;BME280;13604;52.496;13.456;2023-02-14T04:29:41;103334.84;;;3.74;85.42
25759;BME280;13604;52.496;13.456;2023-02-14T04:32:09;103329.78;;;3.82;84.94
25759;BME280;13604;52.496;13.456;2023-02-14T04:34:35;103329.56;;;3.88;84.47
25759;BME280;13604;52.496;13.456;2023-02-14T04:37:00;103321.34;;;3.76;85.28
25759;BME280;13604;52.496;13.456;2023-02-14T04:39:26;103306.25;;;3.49;85.98
25759;BME280;13604;52.496;13.456;2023-02-14T04:41:51;103321.13;;;3.52;86.42
25759;BME280;13604;52.496;13.456;2023-02-14T04:44:16;103325.91;;;3.56;86.40
25759;BME280;13604;52.496;13.456;2023-02-14T04:46:42;103312.59;;;3.67;85.97
25759;BME280;13604;52.496;13.456;2023-02-14T04:49:07;103320.63;;;3.77;85.42
25759;BME280;13604;52.496;13.456;2023-02-14T04:51:32;103302.59;;;3.77;85.31
25759;BME280;13604;52.496;13.456;2023-02-14T04:53:57;103315.03;;;3.89;84.76
25759;BME280;13604;52.496;13.456;2023-02-14T04:56:23;103308.09;;;3.80;85.12
25759;BME280;13604;52.496;13.456;2023-02-14T04:58:50;103316.63;;;3.95;84.74
25759;BME280;13604;52.496;13.456;2023-02-14T05:01:15;103303.66;;;3.79;84.80
25759;BME280;13604;52.496;13.456;2023-02-14T05:03:40;103298.03;;;3.67;85.15
25759;BME280;13604;52.496;13.456;2023-02-14T05:06:06;103303.91;;;3.74;84.92
25759;BME280;13604;52.496;13.456;2023-02-14T05:08:31;103299.47;;;3.73;84.90
25759;BME280;13604;52.496;13.456;2023-02-14T05:10:56;103314.84;;;3.87;84.84
25759;BME280;13604;52.496;13.456;2023-02-14T05:13:21;103294.22;;;3.64;84.79
25759;BME280;13604;52.496;13.456;2023-02-14T05:15:47;103307.78;;;3.70;84.89
25759;BME280;13604;52.496;13.456;2023-02-14T05:18:12;103294.91;;;3.70;85.01
25759;BME280;13604;52.496;13.456;2023-02-14T05:20:38;103300.72;;;3.83;84.20
25759;BME280;13604;52.496;13.456;2023-02-14T05:23:03;103290.22;;;3.82;84.39
25759;BME280;13604;52.496;13.456;2023-02-14T05:25:29;103301.16;;;3.95;84.24
25759;BME280;13604;52.496;13.456;2023-02-14T05:27:55;103283.56;;;3.84;84.01
25759;BME280;13604;52.496;13.456;2023-02-14T05:30:20;103308.31;;;3.98;83.48
25759;BME280;13604;52.496;13.456;2023-02-14T05:32:52;103304.81;;;3.97;83.65
25759;BME280;13604;52.496;13.456;2023-02-14T05:35:18;103266.16;;;3.74;83.50
25759;BME280;13604;52.496;13.456;2023-02-14T05:37:43;103307.41;;;3.97;83.73
25759;BME280;13604;52.496;13.456;2023-02-14T05:40:09;103297.88;;;3.89;83.76
25759;BME280;13604;52.496;13.456;2023-02-14T05:42:37;103263.56;;;3.74;83.97
25759;BME280;13604;52.496;13.456;2023-02-14T05:45:03;103286.13;;;3.61;84.37
25759;BME280;13604;52.496;13.456;2023-02-14T05:47:28;103293.31;;;3.56;84.96
25759;BME280;13604;52.496;13.456;2023-02-14T05:49:53;103298.41;;;3.71;84.48
25759;BME280;13604;52.496;13.456;2023-02-14T05:52:18;103305.88;;;3.76;84.80
25759;BME280;13604;52.496;13.456;2023-02-14T05:54:44;103288.25;;;3.72;84.34
25759;BME280;13604;52.496;13.456;2023-02-14T05:57:09;103296.16;;;3.74;84.92
25759;BME280;13604;52.496;13.456;2023-02-14T05:59:34;103285.88;;;3.74;84.54
25759;BME280;13604;52.496;13.456;2023-02-14T06:02:00;103276.81;;;3.77;84.22
25759;BME280;13604;52.496;13.456;2023-02-14T06:04:25;103274.00;;;3.83;84.17
25759;BME280;13604;52.496;13.456;2023-02-14T06:06:50;103289.59;;;3.92;84.15
25759;BME280;13604;52.496;13.456;2023-02-14T06:09:16;103291.03;;;3.97;84.06
25759;BME280;13604;52.496;13.456;2023-02-14T06:11:41;103266.78;;;3.87;83.70
25759;BME280;13604;52.496;13.456;2023-02-14T06:14:06;103280.44;;;3.86;83.34
25759;BME280;13604;52.496;13.456;2023-02-14T06:16:32;103299.28;;;4.01;83.46
25759;BME280;13604;52.496;13.456;2023-02-14T06:18:57;103285.41;;;3.85;83.86
25759;BME280;13604;52.496;13.456;2023-02-14T06:21:22;103298.81;;;3.90;84.08
25759;BME280;13604;52.496;13.456;2023-02-14T06:23:47;103280.34;;;3.71;83.94
25759;BME280;13604;52.496;13.456;2023-02-14T06:26:13;103302.78;;;3.72;84.11
25759;BME280;13604;52.496;13.456;2023-02-14T06:28:38;103296.47;;;3.54;85.29
25759;BME280;13604;52.496;13.456;2023-02-14T06:31:03;103274.69;;;3.36;85.41
25759;BME280;13604;52.496;13.456;2023-02-14T06:33:29;103288.22;;;3.49;85.02
25759;BME280;13604;52.496;13.456;2023-02-14T06:35:54;103305.84;;;3.53;85.47
25759;BME280;13604;52.496;13.456;2023-02-14T06:38:19;103280.75;;;3.36;85.17
25759;BME280;13604;52.496;13.456;2023-02-14T06:40:45;103307.88;;;3.56;84.99
25759;BME280;13604;52.496;13.456;2023-02-14T06:43:10;103305.47;;;3.57;84.75
25759;BME280;13604;52.496;13.456;2023-02-14T06:45:35;103262.19;;;3.31;84.95
25759;BME280;13604;52.496;13.456;2023-02-14T06:48:01;103299.34;;;3.64;85.21
25759;BME280;13604;52.496;13.456;2023-02-14T06:50:26;103289.34;;;3.44;84.81
25759;BME280;13604;52.496;13.456;2023-02-14T06:52:51;103300.75;;;3.46;85.42
25759;BME280;13604;52.496;13.456;2023-02-14T06:55:17;103307.13;;;3.57;85.53
25759;BME280;13604;52.496;13.456;2023-02-14T06:57:43;103308.00;;;3.64;85.02
25759;BME280;13604;52.496;13.456;2023-02-14T07:00:09;103289.75;;;3.70;84.64
25759;BME280;13604;52.496;13.456;2023-02-14T07:02:34;103294.44;;;3.81;84.25
25759;BME280;13604;52.496;13.456;2023-02-14T07:04:59;103297.38;;;3.84;83.74
25759;BME280;13604;52.496;13.456;2023-02-14T07:07:24;103276.78;;;3.54;84.06
25759;BME280;13604;52.496;13.456;2023-02-14T07:09:50;103302.78;;;3.72;83.72
25759;BME280;13604;52.496;13.456;2023-02-14T07:12:16;103283.31;;;3.66;83.89
25759;BME280;13604;52.496;13.456;2023-02-14T07:14:41;103286.38;;;3.78;83.45
25759;BME280;13604;52.496;13.456;2023-02-14T07:17:06;103297.44;;;3.77;83.05
25759;BME280;13604;52.496;13.456;2023-02-14T07:19:32;103298.34;;;3.78;83.74
25759;BME280;13604;52.496;13.456;2023-02-14T07:21:57;103275.38;;;3.72;83.76
25759;BME280;13604;52.496;13.456;2023-02-14T07:24:22;103297.28;;;3.99;83.39
25759;BME280;13604;52.496;13.456;2023-02-14T07:26:47;103297.00;;;3.89;82.90
25759;BME280;13604;52.496;13.456;2023-02-14T07:29:13;103279.16;;;3.83;82.89
25759;BME280;13604;52.496;13.456;2023-02-14T07:31:38;103264.59;;;3.60;83.41
25759;BME280;13604;52.496;13.456;2023-02-14T07:34:04;103297.72;;;3.87;83.46
25759;BME280;13604;52.496;13.456;2023-02-14T07:36:29;103308.97;;;4.11;82.98
25759;BME280;13604;52.496;13.456;2023-02-14T07:38:55;103309.66;;;4.17;82.84
25759;BME280;13604;52.496;13.456;2023-02-14T07:41:21;103290.97;;;4.04;82.00
25759;BME280;13604;52.496;13.456;2023-02-14T07:43:46;103285.91;;;3.90;82.39
25759;BME280;13604;52.496;13.456;2023-02-14T07:46:11;103296.72;;;4.01;82.48
25759;BME280;13604;52.496;13.456;2023-02-14T07:48:37;103297.28;;;3.99;82.24
25759;BME280;13604;52.496;13.456;2023-02-14T07:51:03;103297.50;;;3.93;83.05
25759;BME280;13604;52.496;13.456;2023-02-14T07:53:28;103284.94;;;3.96;83.06
25759;BME280;13604;52.496;13.456;2023-02-14T07:55:57;103288.72;;;4.07;83.07
25759;BME280;13604;52.496;13.456;2023-02-14T07:58:24;103284.91;;;4.03;82.77
25759;BME280;13604;52.496;13.456;2023-02-14T08:00:50;103281.16;;;4.09;82.77
25759;BME280;13604;52.496;13.456;2023-02-14T08:03:15;103296.91;;;4.19;82.57
25759;BME280;13604;52.496;13.456;2023-02-14T08:05:41;103303.50;;;4.24;82.37
25759;BME280;13604;52.496;13.456;2023-02-14T08:08:06;103306.78;;;4.30;82.32
25759;BME280;13604;52.496;13.456;2023-02-14T08:10:32;103289.97;;;4.34;81.77
25759;BME280;13604;52.496;13.456;2023-02-14T08:12:57;103295.56;;;4.30;81.69
25759;BME280;13604;52.496;13.456;2023-02-14T08:15:22;103305.56;;;4.42;81.68
25759;BME280;13604;52.496;13.456;2023-02-14T08:18:06;103309.09;;;4.59;81.32
25759;BME280;13604;52.496;13.456;2023-02-14T08:20:31;103312.00;;;4.46;81.28
25759;BME280;13604;52.496;13.456;2023-02-14T08:22:57;103316.38;;;4.47;81.29
25759;BME280;13604;52.496;13.456;2023-02-14T08:25:22;103294.97;;;4.32;81.38
25759;BME280;13604;52.496;13.456;2023-02-14T08:27:47;103320.81;;;4.48;81.57
25759;BME280;13604;52.496;13.456;2023-02-14T08:30:13;103299.31;;;4.40;81.21
25759;BME280;13604;52.496;13.456;2023-02-14T08:32:38;103324.28;;;4.49;81.29
25759;BME280;13604;52.496;13.456;2023-02-14T08:35:04;103332.59;;;4.69;81.00
25759;BME280;13604;52.496;13.456;2023-02-14T08:37:29;103337.06;;;4.63;80.64
25759;BME280;13604;52.496;13.456;2023-02-14T08:39:54;103334.91;;;4.75;80.64
25759;BME280;13604;52.496;13.456;2023-02-14T08:42:21;103333.03;;;4.81;80.59
25759;BME280;13604;52.496;13.456;2023-02-14T08:44:46;103321.38;;;4.69;80.21
25759;BME280;13604;52.496;13.456;2023-02-14T08:47:11;103337.16;;;4.72;80.74
25759;BME280;13604;52.496;13.456;2023-02-14T08:49:37;103329.25;;;4.54;81.28
25759;BME280;13604;52.496;13.456;2023-02-14T08:52:02;103342.00;;;4.46;81.69
25759;BME280;13604;52.496;13.456;2023-02-14T08:54:27;103345.53;;;4.46;81.88
25759;BME280;13604;52.496;13.456;2023-02-14T08:56:52;103332.84;;;4.40;82.47
25759;BME280;13604;52.496;13.456;2023-02-14T08:59:18;103336.72;;;4.60;81.76
25759;BME280;13604;52.496;13.456;2023-02-14T09:01:43;103326.56;;;4.61;81.61
25759;BME280;13604;52.496;13.456;2023-02-14T09:04:08;103308.94;;;4.57;81.29
25759;BME280;13604;52.496;13.456;2023-02-14T09:06:36;103338.53;;;4.84;81.18
25759;BME280;13604;52.496;13.456;2023-02-14T09:09:02;103331.78;;;4.77;81.05
25759;BME280;13604;52.496;13.456;2023-02-14T09:11:27;103324.50;;;4.66;81.12
25759;BME280;13604;52.496;13.456;2023-02-14T09:13:53;103318.38;;;4.89;80.86
25759;BME280;13604;52.496;13.456;2023-02-14T09:16:20;103340.22;;;5.15;80.33
25759;BME280;13604;52.496;13.456;2023-02-14T09:18:47;103338.28;;;5.22;79.12
25759;BME280;13604;52.496;13.456;2023-02-14T09:21:16;103343.28;;;5.20;80.01
25759;BME280;13604;52.496;13.456;2023-02-14T09:23:41;103347.69;;;5.21;79.57
25759;BME280;13604;52.496;13.456;2023-02-14T09:26:09;103343.03;;;5.26;79.24
25759;BME280;13604;52.496;13.456;2023-02-14T09:28:35;103334.47;;;5.18;79.26
25759;BME280;13604;52.496;13.456;2023-02-14T09:31:18;103337.47;;;5.30;78.92
25759;BME280;13604;52.496;13.456;2023-02-14T09:33:44;103335.22;;;5.17;79.21
25759;BME280;13604;52.496;13.456;2023-02-14T09:36:28;103335.47;;;4.95;80.57
25759;BME280;13604;52.496;13.456;2023-02-14T09:39:12;103331.28;;;5.05;80.50
25759;BME280;13604;52.496;13.456;2023-02-14T09:47:00;103320.25;;;5.46;77.22
25759;BME280;13604;52.496;13.456;2023-02-14T09:49:32;103337.53;;;5.79;76.84
25759;BME280;13604;52.496;13.456;2023-02-14T09:52:00;103340.53;;;5.75;76.70
25759;BME280;13604;52.496;13.456;2023-02-14T09:54:27;103335.97;;;5.72;75.95
25759;BME280;13604;52.496;13.456;2023-02-14T09:57:00;103349.31;;;5.93;75.41
25759;BME280;13604;52.496;13.456;2023-02-14T09:59:35;103342.75;;;6.04;75.04
25759;BME280;13604;52.496;13.456;2023-02-14T10:05:13;103349.06;;;5.74;75.55
25759;BME280;13604;52.496;13.456;2023-02-14T10:10:42;103339.44;;;5.48;75.55
25759;BME280;13604;52.496;13.456;2023-02-14T10:15:57;103336.91;;;5.57;74.26
25759;BME280;13604;52.496;13.456;2023-02-14T10:18:41;103347.41;;;5.59;75.34
25759;BME280;13604;52.496;13.456;2023-02-14T10:21:14;103333.78;;;5.68;75.46
25759;BME280;13604;52.496;13.456;2023-02-14T10:23:50;103329.66;;;5.86;74.92
25759;BME280;13604;52.496;13.456;2023-02-14T10:26:23;103332.72;;;5.66;75.25
25759;BME280;13604;52.496;13.456;2023-02-14T10:28:51;103329.66;;;5.86;74.87
25759;BME280;13604;52.496;13.456;2023-02-14T10:33:50;103303.97;;;6.13;73.18
25759;BME280;13604;52.496;13.456;2023-02-14T10:36:25;103317.81;;;6.13;73.23
25759;BME280;13604;52.496;13.456;2023-02-14T10:39:33;103307.56;;;5.57;73.75
25759;BME280;13604;52.496;13.456;2023-02-14T10:42:21;103319.72;;;5.98;73.94
25759;BME280;13604;52.496;13.456;2023-02-14T10:44:58;103314.00;;;6.10;73.63
25759;BME280;13604;52.496;13.456;2023-02-14T10:53:02;103295.78;;;5.92;72.53
25759;BME280;13604;52.496;13.456;2023-02-14T10:55:50;103323.44;;;6.42;72.68
25759;BME280;13604;52.496;13.456;2023-02-14T10:58:20;103326.09;;;6.26;72.49
25759;BME280;13604;52.496;13.456;2023-02-14T11:01:12;103319.31;;;6.44;72.00
25759;BME280;13604;52.496;13.456;2023-02-14T11:03:40;103323.38;;;6.76;70.91
25759;BME280;13604;52.496;13.456;2023-02-14T11:06:09;103303.59;;;6.76;70.33
25759;BME280;13604;52.496;13.456;2023-02-14T11:08:39;103312.28;;;6.86;69.74
25759;BME280;13604;52.496;13.456;2023-02-14T11:11:21;103310.00;;;6.38;71.29
25759;BME280;13604;52.496;13.456;2023-02-14T11:13:48;103288.88;;;6.51;70.81
25759;BME280;13604;52.496;13.456;2023-02-14T11:16:28;103307.22;;;6.70;71.11
25759;BME280;13604;52.496;13.456;2023-02-14T11:19:28;103304.56;;;6.43;70.73
25759;BME280;13604;52.496;13.456;2023-02-14T11:21:56;103298.09;;;6.65;70.37
25759;BME280;13604;52.496;13.456;2023-02-14T11:24:34;103306.75;;;6.65;70.89
25759;BME280;13604;52.496;13.456;2023-02-14T11:27:03;103290.78;;;6.78;69.55
25759;BME280;13604;52.496;13.456;2023-02-14T11:29:42;103304.69;;;7.13;69.75
25759;BME280;13604;52.496;13.456;2023-02-14T11:32:14;103287.16;;;6.85;68.91
25759;BME280;13604;52.496;13.456;2023-02-14T11:34:41;103297.34;;;7.00;69.34
25759;BME280;13604;52.496;13.456;2023-02-14T11:39:46;103298.13;;;6.91;69.45
25759;BME280;13604;52.496;13.456;2023-02-14T11:42:12;103275.25;;;6.87;68.82
25759;BME280;13604;52.496;13.456;2023-02-14T11:44:53;103287.72;;;6.73;69.45
25759;BME280;13604;52.496;13.456;2023-02-14T11:47:27;103293.84;;;6.82;68.77
25759;BME280;13604;52.496;13.456;2023-02-14T11:50:02;103295.38;;;6.98;68.80
25759;BME280;13604;52.496;13.456;2023-02-14T11:52:31;103284.50;;;6.58;69.67
25759;BME280;13604;52.496;13.456;2023-02-14T11:54:57;103264.56;;;6.15;70.39
25759;BME280;13604;52.496;13.456;2023-02-14T11:57:32;103278.41;;;6.16;71.09
25759;BME280;13604;52.496;13.456;2023-02-14T12:00:00;103287.19;;;6.00;71.74
25759;BME280;13604;52.496;13.456;2023-02-14T12:02:40;103271.75;;;6.26;71.01
25759;BME280;13604;52.496;13.456;2023-02-14T12:05:28;103279.19;;;6.66;70.14
25759;BME280;13604;52.496;13.456;2023-02-14T12:07:56;103279.16;;;6.57;70.56
25759;BME280;13604;52.496;13.456;2023-02-14T12:10:29;103269.88;;;6.59;69.91
25759;BME280;13604;52.496;13.456;2023-02-14T12:12:59;103266.69;;;6.61;69.74
25759;BME280;13604;52.496;13.456;2023-02-14T12:20:50;103250.97;;;6.51;70.20
25759;BME280;13604;52.496;13.456;2023-02-14T12:26:27;103229.75;;;6.38;70.59
25759;BME280;13604;52.496;13.456;2023-02-14T12:29:14;103238.16;;;6.35;70.61
25759;BME280;13604;52.496;13.456;2023-02-14T12:31:43;103249.78;;;6.56;69.98
25759;BME280;13604;52.496;13.456;2023-02-14T12:34:15;103213.91;;;6.26;71.24
25759;BME280;13604;52.496;13.456;2023-02-14T12:37:16;103231.69;;;6.14;71.42
25759;BME280;13604;52.496;13.456;2023-02-14T12:40:08;103229.16;;;6.32;71.63
25759;BME280;13604;52.496;13.456;2023-02-14T12:42:57;103218.56;;;6.72;72.32
25759;BME280;13604;52.496;13.456;2023-02-14T12:51:48;103196.22;;;6.13;71.57
25759;BME280;13604;52.496;13.456;2023-02-14T12:54:29;103206.19;;;6.52;71.23
25759;BME280;13604;52.496;13.456;2023-02-14T12:57:21;103209.25;;;6.48;71.21
25759;BME280;13604;52.496;13.456;2023-02-14T13:02:55;103190.34;;;6.49;70.33
25759;BME280;13604;52.496;13.456;2023-02-14T13:05:43;103193.59;;;6.73;70.33
25759;BME280;13604;52.496;13.456;2023-02-14T13:08:47;103199.59;;;6.21;71.51
25759;BME280;13604;52.496;13.456;2023-02-14T13:17:31;103190.78;;;6.36;71.58
25759;BME280;13604;52.496;13.456;2023-02-14T13:23:07;103194.72;;;6.24;71.45
25759;BME280;13604;52.496;13.456;2023-02-14T13:25:38;103179.19;;;6.15;71.30
25759;BME280;13604;52.496;13.456;2023-02-14T13:28:11;103186.53;;;6.37;72.32
25759;BME280;13604;52.496;13.456;2023-02-14T13:30:38;103184.53;;;6.43;71.48
25759;BME280;13604;52.496;13.456;2023-02-14T13:33:07;103174.34;;;6.44;71.39
25759;BME280;13604;52.496;13.456;2023-02-14T13:35:33;103173.13;;;6.23;72.00
25759;BME280;13604;52.496;13.456;2023-02-14T13:38:02;103165.69;;;6.35;72.00
25759;BME280;13604;52.496;13.456;2023-02-14T13:40:29;103175.41;;;6.38;71.54
25759;BME280;13604;52.496;13.456;2023-02-14T13:42:57;103173.06;;;6.15;72.50
25759;BME280;13604;52.496;13.456;2023-02-14T13:48:17;103175.03;;;5.75;73.82
25759;BME280;13604;52.496;13.456;2023-02-14T13:51:06;103174.47;;;5.78;73.63
25759;BME280;13604;52.496;13.456;2023-02-14T13:56:04;103169.28;;;5.78;73.80
25759;BME280;13604;52.496;13.456;2023-02-14T13:58:33;103163.47;;;5.71;74.52
25759;BME280;13604;52.496;13.456;2023-02-14T14:01:26;103177.78;;;5.77;74.23
25759;BME280;13604;52.496;13.456;2023-02-14T14:03:55;103147.31;;;5.65;74.60
25759;BME280;13604;52.496;13.456;2023-02-14T14:06:21;103167.75;;;5.71;74.29
25759;BME280;13604;52.496;13.456;2023-02-14T14:08:52;103162.75;;;5.48;75.31
25759;BME280;13604;52.496;13.456;2023-02-14T14:14:00;103176.13;;;5.52;76.32
25759;BME280;13604;52.496;13.456;2023-02-14T14:16:32;103168.28;;;5.60;75.62
25759;BME280;13604;52.496;13.456;2023-02-14T14:21:59;103149.97;;;5.83;74.93
25759;BME280;13604;52.496;13.456;2023-02-14T14:24:28;103166.81;;;6.04;74.54
25759;BME280;13604;52.496;13.456;2023-02-14T14:27:15;103162.13;;;5.75;75.34
25759;BME280;13604;52.496;13.456;2023-02-14T14:29:54;103160.22;;;5.57;75.73
25759;BME280;13604;52.496;13.456;2023-02-14T14:35:00;103125.94;;;5.42;75.47
25759;BME280;13604;52.496;13.456;2023-02-14T14:37:29;103131.00;;;5.24;76.74